createdAt,value
2018-12-26T00:00:35.521Z,99.99
2018-12-26T00:01:35.409Z,99.99
2018-12-26T00:02:35.270Z,99.99
2018-12-26T00:03:35.294Z,99.99
2018-12-26T00:04:35.340Z,99.99
2018-12-26T00:05:35.449Z,99.99
2018-12-26T00:06:35.324Z,99.99
2018-12-26T00:07:35.344Z,99.99
2018-12-26T00:08:35.365Z,99.99
2018-12-26T00:09:35.388Z,99.99
2018-12-26T00:10:35.534Z,99.99
2018-12-26T00:11:35.400Z,99.99
2018-12-26T00:12:35.411Z,99.99
2018-12-26T00:13:35.492Z,99.99
2018-12-26T00:14:35.458Z,99.99
2018-12-26T00:15:35.689Z,99.99
2018-12-26T00:16:35.598Z,99.99
2018-12-26T00:17:35.611Z,99.99
2018-12-26T00:18:35.520Z,99.99
2018-12-26T00:19:35.717Z,99.99
2018-12-26T00:20:35.623Z,99.99
2018-12-26T00:21:35.548Z,99.99
2018-12-26T00:22:35.568Z,99.99
2018-12-26T00:23:35.587Z,99.99
2018-12-26T00:24:35.608Z,99.99
2018-12-26T00:25:35.829Z,99.99
2018-12-26T00:26:35.622Z,99.99
2018-12-26T00:27:35.623Z,99.99
2018-12-26T00:28:35.644Z,99.99
2018-12-26T00:29:35.656Z,99.99
2018-12-26T00:30:35.784Z,99.99
2018-12-26T00:31:35.692Z,99.99
2018-12-26T00:32:35.718Z,99.99
2018-12-26T00:33:35.720Z,99.99
2018-12-26T00:34:35.860Z,99.99
2018-12-26T00:35:35.807Z,99.99
2018-12-26T00:36:35.755Z,99.99
2018-12-26T00:37:35.801Z,99.99
2018-12-26T00:38:35.788Z,99.99
2018-12-26T00:39:35.929Z,99.99
2018-12-26T00:40:36.146Z,99.99
2018-12-26T00:41:35.826Z,99.99
2018-12-26T00:42:35.952Z,99.99
2018-12-26T00:43:35.989Z,99.99
2018-12-26T00:44:35.874Z,99.99
2018-12-26T00:45:36.009Z,99.99
2018-12-26T00:46:35.950Z,99.99
2018-12-26T00:47:35.928Z,99.99
2018-12-26T00:48:35.956Z,99.99
2018-12-26T00:49:36.012Z,99.99
2018-12-26T00:50:36.076Z,99.99
2018-12-26T00:51:35.984Z,99.99
2018-12-26T00:52:35.992Z,99.99
2018-12-26T00:53:36.133Z,99.99
2018-12-26T00:54:36.146Z,99.99
2018-12-26T00:55:36.135Z,99.99
2018-12-26T00:56:36.060Z,99.99
2018-12-26T00:57:36.190Z,99.99
2018-12-26T00:58:36.087Z,99.99
2018-12-26T00:59:36.100Z,99.99
2018-12-26T01:00:36.223Z,99.99
2018-12-26T01:01:36.126Z,99.99
2018-12-26T01:02:36.157Z,99.99
2018-12-26T01:03:36.157Z,99.99
2018-12-26T01:04:36.178Z,99.99
2018-12-26T01:05:36.406Z,99.99
2018-12-26T01:06:36.196Z,99.99
2018-12-26T01:07:36.225Z,99.99
2018-12-26T01:08:36.225Z,99.99
2018-12-26T01:09:36.242Z,99.99
2018-12-26T01:10:36.359Z,99.99
2018-12-26T01:11:36.277Z,99.99
2018-12-26T01:12:36.278Z,99.99
2018-12-26T01:13:36.296Z,99.99
2018-12-26T01:14:36.336Z,99.99
2018-12-26T01:15:36.370Z,99.99
2018-12-26T01:16:36.346Z,99.99
2018-12-26T01:17:36.514Z,99.99
2018-12-26T01:18:36.372Z,99.99
2018-12-26T01:19:36.386Z,99.99
2018-12-26T01:20:36.392Z,99.99
2018-12-26T01:21:36.408Z,99.99
2018-12-26T01:22:36.536Z,99.99
2018-12-26T01:23:36.438Z,99.99
2018-12-26T01:24:36.464Z,99.99
2018-12-26T01:25:36.486Z,99.99
2018-12-26T01:26:36.491Z,99.99
2018-12-26T01:27:36.610Z,99.99
2018-12-26T01:28:36.513Z,99.99
2018-12-26T01:29:36.543Z,99.99
2018-12-26T01:30:36.545Z,99.99
2018-12-26T01:31:36.546Z,99.99
2018-12-26T01:32:36.675Z,99.99
2018-12-26T01:33:36.705Z,99.99
2018-12-26T01:34:36.594Z,99.99
2018-12-26T01:35:36.627Z,99.99
2018-12-26T01:36:36.626Z,99.99
2018-12-26T01:37:36.866Z,99.99
2018-12-26T01:38:36.780Z,99.99
2018-12-26T01:39:36.670Z,99.99
2018-12-26T01:40:36.690Z,99.99
2018-12-26T01:41:36.702Z,99.99
2018-12-26T01:42:36.915Z,99.99
2018-12-26T01:43:36.720Z,99.99
2018-12-26T01:44:36.736Z,99.99
2018-12-26T01:45:36.879Z,99.99
2018-12-26T01:46:36.777Z,99.99
2018-12-26T01:47:36.886Z,99.99
2018-12-26T01:48:36.820Z,99.99
2018-12-26T01:49:36.819Z,99.99
2018-12-26T01:50:36.955Z,99.99
2018-12-26T01:51:36.852Z,99.99
2018-12-26T01:52:36.956Z,99.99
2018-12-26T01:53:36.881Z,99.99
2018-12-26T01:54:36.896Z,99.99
2018-12-26T01:55:36.897Z,99.99
2018-12-26T01:56:36.920Z,99.99
2018-12-26T01:57:37.052Z,99.99
2018-12-26T01:58:36.935Z,99.99
2018-12-26T01:59:36.960Z,99.99
2018-12-26T02:00:36.965Z,99.99
2018-12-26T02:01:36.987Z,99.99
2018-12-26T02:02:37.108Z,99.99
2018-12-26T02:03:37.010Z,99.99
2018-12-26T02:04:37.037Z,99.99
2018-12-26T02:05:37.048Z,99.99
2018-12-26T02:06:37.070Z,99.99
2018-12-26T02:07:37.178Z,99.99
2018-12-26T02:08:37.101Z,99.99
2018-12-26T02:09:37.104Z,99.99
2018-12-26T02:10:37.145Z,99.99
2018-12-26T02:11:37.150Z,99.99
2018-12-26T02:12:37.270Z,99.99
2018-12-26T02:13:37.152Z,99.99
2018-12-26T02:14:37.300Z,99.99
2018-12-26T02:15:37.185Z,99.99
2018-12-26T02:16:37.201Z,99.99
2018-12-26T02:17:37.312Z,99.99
2018-12-26T02:18:37.231Z,99.99
2018-12-26T02:19:37.250Z,99.99
2018-12-26T02:20:37.390Z,99.99
2018-12-26T02:21:37.269Z,99.99
2018-12-26T02:22:37.404Z,99.99
2018-12-26T02:23:37.311Z,99.99
2018-12-26T02:24:37.331Z,99.99
2018-12-26T02:25:37.362Z,99.99
2018-12-26T02:26:37.476Z,99.99
2018-12-26T02:27:37.504Z,99.99
2018-12-26T02:28:37.505Z,99.99
2018-12-26T02:29:37.401Z,99.99
2018-12-26T02:30:37.418Z,99.99
2018-12-26T02:31:37.438Z,99.99
2018-12-26T02:32:37.591Z,99.99
2018-12-26T02:33:37.575Z,99.99
2018-12-26T02:34:37.467Z,99.99
2018-12-26T02:35:37.476Z,99.99
2018-12-26T02:36:37.514Z,99.99
2018-12-26T02:37:37.621Z,99.99
2018-12-26T02:38:37.515Z,99.99
2018-12-26T02:39:37.539Z,99.99
2018-12-26T02:40:37.546Z,99.99
2018-12-26T02:41:37.561Z,99.99
2018-12-26T02:42:37.641Z,99.99
2018-12-26T02:43:37.596Z,99.99
2018-12-26T02:44:37.618Z,99.99
2018-12-26T02:45:37.624Z,99.99
2018-12-26T02:46:37.654Z,99.99
2018-12-26T02:47:37.710Z,99.99
2018-12-26T02:48:37.675Z,99.99
2018-12-26T02:49:37.696Z,99.99
2018-12-26T02:50:37.821Z,99.99
2018-12-26T02:51:37.702Z,99.99
2018-12-26T02:52:37.841Z,99.99
2018-12-26T02:53:37.745Z,99.99
2018-12-26T02:54:37.750Z,99.99
2018-12-26T02:55:37.773Z,99.99
2018-12-26T02:56:46.163Z,99.99
2018-12-26T02:57:37.977Z,99.99
2018-12-26T02:58:37.807Z,99.99
2018-12-26T02:59:37.942Z,99.99
2018-12-26T03:00:37.989Z,99.99
2018-12-26T03:01:37.887Z,99.99
2018-12-26T03:02:37.866Z,99.99
2018-12-26T03:03:37.885Z,99.99
2018-12-26T03:04:37.907Z,99.99
2018-12-26T03:05:37.962Z,99.99
2018-12-26T03:06:38.048Z,99.99
2018-12-26T03:07:37.926Z,99.99
2018-12-26T03:08:37.946Z,99.99
2018-12-26T03:09:37.955Z,99.99
2018-12-26T03:10:37.987Z,99.99
2018-12-26T03:11:38.048Z,99.99
2018-12-26T03:12:38.127Z,99.99
2018-12-26T03:13:38.033Z,99.99
2018-12-26T03:14:38.153Z,99.99
2018-12-26T03:15:38.066Z,99.99
2018-12-26T03:16:38.163Z,99.99
2018-12-26T03:17:38.089Z,99.99
2018-12-26T03:18:38.091Z,99.99
2018-12-26T03:19:38.105Z,99.99
2018-12-26T03:20:38.234Z,99.99
2018-12-26T03:21:38.350Z,99.99
2018-12-26T03:22:38.162Z,99.99
2018-12-26T03:23:38.152Z,99.99
2018-12-26T03:24:38.172Z,99.99
2018-12-26T03:25:38.307Z,99.99
2018-12-26T03:26:38.262Z,99.99
2018-12-26T03:27:38.339Z,99.99
2018-12-26T03:28:38.352Z,99.99
2018-12-26T03:29:38.355Z,99.99
2018-12-26T03:30:38.249Z,99.99
2018-12-26T03:31:38.312Z,99.99
2018-12-26T03:32:38.302Z,99.99
2018-12-26T03:33:38.303Z,99.99
2018-12-26T03:34:38.485Z,99.99
2018-12-26T03:35:38.447Z,99.99
2018-12-26T03:36:38.332Z,99.99
2018-12-26T03:37:38.353Z,99.99
2018-12-26T03:38:38.360Z,99.99
2018-12-26T03:39:38.651Z,99.99
2018-12-26T03:40:38.396Z,99.99
2018-12-26T03:41:38.429Z,99.99
2018-12-26T03:42:38.429Z,99.99
2018-12-26T03:43:38.438Z,99.99
2018-12-26T03:44:38.441Z,99.99
2018-12-26T03:45:38.570Z,99.99
2018-12-26T03:46:38.488Z,99.99
2018-12-26T03:47:38.611Z,99.99
2018-12-26T03:48:38.519Z,99.99
2018-12-26T03:49:38.640Z,99.99
2018-12-26T03:50:38.707Z,99.99
2018-12-26T03:51:38.545Z,99.99
2018-12-26T03:52:38.596Z,99.99
2018-12-26T03:53:38.577Z,99.99
2018-12-26T03:54:38.713Z,99.99
2018-12-26T03:55:38.649Z,99.99
2018-12-26T03:56:38.616Z,99.99
2018-12-26T03:57:38.633Z,99.99
2018-12-26T03:58:38.693Z,99.99
2018-12-26T03:59:38.662Z,99.99
2018-12-26T04:00:38.659Z,99.99
2018-12-26T04:01:38.689Z,99.99
2018-12-26T04:02:38.696Z,99.99
2018-12-26T04:03:38.880Z,99.99
2018-12-26T04:04:38.722Z,99.99
2018-12-26T04:05:38.733Z,99.99
2018-12-26T04:06:38.802Z,99.99
2018-12-26T04:07:38.777Z,99.99
2018-12-26T04:08:38.945Z,99.99
2018-12-26T04:09:38.803Z,99.99
2018-12-26T04:10:38.833Z,99.99
2018-12-26T04:11:38.816Z,99.99
2018-12-26T04:12:38.858Z,99.99
2018-12-26T04:13:39.072Z,99.99
2018-12-26T04:14:38.989Z,99.99
2018-12-26T04:15:38.869Z,99.99
2018-12-26T04:16:39.015Z,99.99
2018-12-26T04:17:38.896Z,99.99
2018-12-26T04:18:39.096Z,99.99
2018-12-26T04:19:38.926Z,99.99
2018-12-26T04:20:38.950Z,99.99
2018-12-26T04:21:38.949Z,99.99
2018-12-26T04:22:39.069Z,99.99
2018-12-26T04:23:39.040Z,99.99
2018-12-26T04:24:39.124Z,99.99
2018-12-26T04:25:39.017Z,99.99
2018-12-26T04:26:39.022Z,99.99
2018-12-26T04:27:39.094Z,99.99
2018-12-26T04:28:39.056Z,99.99
2018-12-26T04:29:39.194Z,99.99
2018-12-26T04:30:39.092Z,99.99
2018-12-26T04:31:39.186Z,99.99
2018-12-26T04:32:39.107Z,99.99
2018-12-26T04:33:39.112Z,99.99
2018-12-26T04:34:39.138Z,99.99
2018-12-26T04:35:39.154Z,99.99
2018-12-26T04:36:39.270Z,99.99
2018-12-26T04:37:39.174Z,99.99
2018-12-26T04:38:39.182Z,99.99
2018-12-26T04:39:39.229Z,99.99
2018-12-26T04:40:39.240Z,99.99
2018-12-26T04:41:39.401Z,99.99
2018-12-26T04:42:39.242Z,99.99
2018-12-26T04:43:39.268Z,99.99
2018-12-26T04:44:39.334Z,99.99
2018-12-26T04:45:39.309Z,99.99
2018-12-26T04:46:39.407Z,99.99
2018-12-26T04:47:39.334Z,99.99
2018-12-26T04:48:39.333Z,99.99
2018-12-26T04:49:39.344Z,99.99
2018-12-26T04:50:39.383Z,99.99
2018-12-26T04:51:39.627Z,99.99
2018-12-26T04:52:39.384Z,99.99
2018-12-26T04:53:39.388Z,99.99
2018-12-26T04:54:39.536Z,99.99
2018-12-26T04:55:39.420Z,99.99
2018-12-26T04:56:39.556Z,99.99
2018-12-26T04:57:39.458Z,99.99
2018-12-26T04:58:39.587Z,99.99
2018-12-26T04:59:39.480Z,99.99
2018-12-26T05:00:39.492Z,99.99
2018-12-26T05:01:42.042Z,99.99
2018-12-26T05:02:39.524Z,99.99
2018-12-26T05:03:39.540Z,99.99
2018-12-26T05:04:39.674Z,99.99
2018-12-26T05:05:39.572Z,99.99
2018-12-26T05:06:39.673Z,99.99
2018-12-26T05:07:39.599Z,99.99
2018-12-26T05:08:39.723Z,99.99
2018-12-26T05:09:39.634Z,99.99
2018-12-26T05:10:39.639Z,99.99
2018-12-26T05:11:39.739Z,99.99
2018-12-26T05:12:39.654Z,99.99
2018-12-26T05:13:39.701Z,99.99
2018-12-26T05:14:39.684Z,99.99
2018-12-26T05:15:39.698Z,99.99
2018-12-26T05:16:39.765Z,99.99
2018-12-26T05:17:39.850Z,99.99
2018-12-26T05:18:39.748Z,99.99
2018-12-26T05:19:39.755Z,99.99
2018-12-26T05:20:39.769Z,99.99
2018-12-26T05:21:39.778Z,99.99
2018-12-26T05:22:40.015Z,99.99
2018-12-26T05:23:39.815Z,99.99
2018-12-26T05:24:39.822Z,99.99
2018-12-26T05:25:39.953Z,99.99
2018-12-26T05:26:39.863Z,99.99
2018-12-26T05:27:39.953Z,99.99
2018-12-26T05:28:39.886Z,99.99
2018-12-26T05:29:39.886Z,99.99
2018-12-26T05:30:40.022Z,99.99
2018-12-26T05:31:39.921Z,99.99
2018-12-26T05:32:40.016Z,99.99
2018-12-26T05:33:39.957Z,99.99
2018-12-26T05:34:39.998Z,99.99
2018-12-26T05:35:40.090Z,99.99
2018-12-26T05:36:40.004Z,99.99
2018-12-26T05:37:40.095Z,99.99
2018-12-26T05:38:39.994Z,99.99
2018-12-26T05:39:40.022Z,99.99
2018-12-26T05:40:40.035Z,99.99
2018-12-26T05:41:40.036Z,99.99
2018-12-26T05:42:40.288Z,99.99
2018-12-26T05:43:40.099Z,99.99
2018-12-26T05:44:40.085Z,99.99
2018-12-26T05:45:40.108Z,99.99
2018-12-26T05:46:40.123Z,99.99
2018-12-26T05:47:40.301Z,99.99
2018-12-26T05:48:40.159Z,99.99
2018-12-26T05:49:40.149Z,99.99
2018-12-26T05:50:40.174Z,99.99
2018-12-26T05:51:40.184Z,99.99
2018-12-26T05:52:40.291Z,99.99
2018-12-26T05:53:40.332Z,99.99
2018-12-26T05:54:40.352Z,99.99
2018-12-26T05:55:40.237Z,99.99
2018-12-26T05:56:40.256Z,99.99
2018-12-26T05:57:42.973Z,99.99
2018-12-26T05:58:40.401Z,99.99
2018-12-26T05:59:40.297Z,99.99
2018-12-26T06:00:40.307Z,99.99
2018-12-26T06:01:40.333Z,99.99
2018-12-26T06:02:40.485Z,99.99
2018-12-26T06:03:40.343Z,99.99
2018-12-26T06:04:40.364Z,99.99
2018-12-26T06:05:40.361Z,99.99
2018-12-26T06:06:40.505Z,99.99
2018-12-26T06:07:40.501Z,99.99
2018-12-26T06:08:40.396Z,99.99
2018-12-26T06:09:40.544Z,99.99
2018-12-26T06:10:40.428Z,99.99
2018-12-26T06:11:40.497Z,99.99
2018-12-26T06:12:40.609Z,99.99
2018-12-26T06:13:40.517Z,99.99
2018-12-26T06:14:40.488Z,99.99
2018-12-26T06:15:40.507Z,99.99
2018-12-26T06:16:40.535Z,99.99
2018-12-26T06:17:40.587Z,99.99
2018-12-26T06:18:40.550Z,99.99
2018-12-26T06:19:40.550Z,99.99
2018-12-26T06:20:40.669Z,99.99
2018-12-26T06:21:40.586Z,99.99
2018-12-26T06:22:40.690Z,99.99
2018-12-26T06:23:40.620Z,99.99
2018-12-26T06:24:40.633Z,99.99
2018-12-26T06:25:40.630Z,99.99
2018-12-26T06:26:40.665Z,99.99
2018-12-26T06:27:40.761Z,99.99
2018-12-26T06:28:40.721Z,99.99
2018-12-26T06:29:40.695Z,99.99
2018-12-26T06:30:40.719Z,99.99
2018-12-26T06:31:40.725Z,99.99
2018-12-26T06:32:40.888Z,99.99
2018-12-26T06:33:40.757Z,99.99
2018-12-26T06:34:40.768Z,99.99
2018-12-26T06:35:40.889Z,99.99
2018-12-26T06:36:40.784Z,99.99
2018-12-26T06:37:41.018Z,99.99
2018-12-26T06:38:40.801Z,99.99
2018-12-26T06:39:40.817Z,99.99
2018-12-26T06:40:40.921Z,99.99
2018-12-26T06:41:40.865Z,99.99
2018-12-26T06:42:40.976Z,99.99
2018-12-26T06:43:40.996Z,99.99
2018-12-26T06:44:40.887Z,99.99
2018-12-26T06:45:40.913Z,99.99
2018-12-26T06:46:40.920Z,99.99
2018-12-26T06:47:40.983Z,99.99
2018-12-26T06:48:40.984Z,99.99
2018-12-26T06:49:40.991Z,99.99
2018-12-26T06:50:41.004Z,99.99
2018-12-26T06:51:40.979Z,99.99
2018-12-26T06:52:40.984Z,99.99
2018-12-26T06:53:41.127Z,99.99
2018-12-26T06:54:41.013Z,99.99
2018-12-26T06:55:41.771Z,99.99
2018-12-26T06:56:41.040Z,99.99
2018-12-26T06:57:41.058Z,99.99
2018-12-26T06:58:41.194Z,99.99
2018-12-26T06:59:41.077Z,99.99
2018-12-26T07:00:41.162Z,99.99
2018-12-26T07:01:41.153Z,99.99
2018-12-26T07:02:41.174Z,99.99
2018-12-26T07:03:41.241Z,99.99
2018-12-26T07:04:41.149Z,99.99
2018-12-26T07:05:41.163Z,99.99
2018-12-26T07:06:41.191Z,99.99
2018-12-26T07:07:41.233Z,99.99
2018-12-26T07:08:41.423Z,99.99
2018-12-26T07:09:41.270Z,99.99
2018-12-26T07:10:41.237Z,99.99
2018-12-26T07:11:41.293Z,99.99
2018-12-26T07:12:41.263Z,99.99
2018-12-26T07:13:41.363Z,99.99
2018-12-26T07:14:41.282Z,99.99
2018-12-26T07:15:41.292Z,99.99
2018-12-26T07:16:41.433Z,99.99
2018-12-26T07:17:41.323Z,99.99
2018-12-26T07:18:41.491Z,99.99
2018-12-26T07:19:41.339Z,99.99
2018-12-26T07:20:41.367Z,99.99
2018-12-26T07:21:41.374Z,99.99
2018-12-26T07:22:41.381Z,99.99
2018-12-26T07:23:41.396Z,99.99
2018-12-26T07:24:41.473Z,99.99
2018-12-26T07:25:41.429Z,99.99
2018-12-26T07:26:41.435Z,99.99
2018-12-26T07:27:41.452Z,99.99
2018-12-26T07:28:41.505Z,99.99
2018-12-26T07:29:41.620Z,99.99
2018-12-26T07:30:41.617Z,99.99
2018-12-26T07:31:41.494Z,99.99
2018-12-26T07:32:41.527Z,99.99
2018-12-26T07:33:41.542Z,99.99
2018-12-26T07:34:42.384Z,99.99
2018-12-26T07:35:41.557Z,99.99
2018-12-26T07:36:41.560Z,99.99
2018-12-26T07:37:41.595Z,99.99
2018-12-26T07:38:41.596Z,99.99
2018-12-26T07:39:41.781Z,99.99
2018-12-26T07:40:41.618Z,99.99
2018-12-26T07:41:41.634Z,99.99
2018-12-26T07:42:41.770Z,99.99
2018-12-26T07:43:41.659Z,99.99
2018-12-26T07:44:41.821Z,99.99
2018-12-26T07:45:41.680Z,99.99
2018-12-26T07:46:41.824Z,99.99
2018-12-26T07:47:41.738Z,99.99
2018-12-26T07:48:41.737Z,99.99
2018-12-26T07:49:41.911Z,99.99
2018-12-26T07:50:41.761Z,99.99
2018-12-26T07:51:41.761Z,99.99
2018-12-26T07:52:41.798Z,99.99
2018-12-26T07:53:41.784Z,99.99
2018-12-26T07:54:41.917Z,99.99
2018-12-26T07:55:41.810Z,99.99
2018-12-26T07:56:41.838Z,99.99
2018-12-26T07:57:41.854Z,99.99
2018-12-26T07:58:41.858Z,99.99
2018-12-26T07:59:41.971Z,99.99
2018-12-26T08:00:42.014Z,99.99
2018-12-26T08:01:41.894Z,99.99
2018-12-26T08:02:41.920Z,99.99
2018-12-26T08:03:42.048Z,99.99
2018-12-26T08:04:42.012Z,99.99
2018-12-26T08:05:41.982Z,99.99
2018-12-26T08:06:41.982Z,99.99
2018-12-26T08:07:41.969Z,99.99
2018-12-26T08:08:41.992Z,99.99
2018-12-26T08:09:42.226Z,99.99
2018-12-26T08:10:42.007Z,99.99
2018-12-26T08:11:42.154Z,99.99
2018-12-26T08:12:42.045Z,99.99
2018-12-26T08:13:42.048Z,99.99
2018-12-26T08:14:42.156Z,99.99
2018-12-26T08:15:42.075Z,99.99
2018-12-26T08:16:42.092Z,99.99
2018-12-26T08:17:42.112Z,99.99
2018-12-26T08:18:42.137Z,99.99
2018-12-26T08:19:42.188Z,99.99
2018-12-26T08:20:42.139Z,99.99
2018-12-26T08:21:42.164Z,99.99
2018-12-26T08:22:42.187Z,99.99
2018-12-26T08:23:42.180Z,99.99
2018-12-26T08:24:42.313Z,99.99
2018-12-26T08:25:42.211Z,99.99
2018-12-26T08:26:42.241Z,99.99
2018-12-26T08:27:42.227Z,99.99
2018-12-26T08:28:42.269Z,99.99
2018-12-26T08:29:42.360Z,99.99
2018-12-26T08:30:42.288Z,99.99
2018-12-26T08:31:42.300Z,99.99
2018-12-26T08:32:42.311Z,99.99
2018-12-26T08:33:42.319Z,99.99
2018-12-26T08:34:42.474Z,99.99
2018-12-26T08:35:42.349Z,99.99
2018-12-26T08:36:42.363Z,99.99
2018-12-26T08:37:42.377Z,99.99
2018-12-26T08:38:42.385Z,99.99
2018-12-26T08:39:42.540Z,99.99
2018-12-26T08:40:42.407Z,99.99
2018-12-26T08:41:42.415Z,99.99
2018-12-26T08:42:42.446Z,99.99
2018-12-26T08:43:42.447Z,99.99
2018-12-26T08:44:42.543Z,99.99
2018-12-26T08:45:42.488Z,99.99
2018-12-26T08:46:42.508Z,99.99
2018-12-26T08:47:42.507Z,99.99
2018-12-26T08:48:42.517Z,99.99
2018-12-26T08:49:42.589Z,99.99
2018-12-26T08:50:42.593Z,99.99
2018-12-26T08:51:42.555Z,99.99
2018-12-26T08:52:42.566Z,99.99
2018-12-26T08:53:42.591Z,99.99
2018-12-26T08:54:42.695Z,99.99
2018-12-26T08:55:42.711Z,99.99
2018-12-26T08:56:42.750Z,99.99
2018-12-26T08:57:42.636Z,99.99
2018-12-26T08:58:42.774Z,99.99
2018-12-26T08:59:42.819Z,99.99
2018-12-26T09:00:42.697Z,99.99
2018-12-26T09:01:42.708Z,99.99
2018-12-26T09:02:42.750Z,99.99
2018-12-26T09:03:42.841Z,99.99
2018-12-26T09:04:42.836Z,99.99
2018-12-26T09:05:42.759Z,99.99
2018-12-26T09:06:42.766Z,99.99
2018-12-26T09:07:42.769Z,99.99
2018-12-26T09:08:42.792Z,99.99
2018-12-26T09:09:42.909Z,99.99
2018-12-26T09:10:42.942Z,99.99
2018-12-26T09:11:42.856Z,99.99
2018-12-26T09:12:42.861Z,99.99
2018-12-26T09:13:42.900Z,99.99
2018-12-26T09:14:42.995Z,99.99
2018-12-26T09:15:42.911Z,99.99
2018-12-26T09:16:42.902Z,99.99
2018-12-26T09:17:42.923Z,99.99
2018-12-26T09:18:42.926Z,99.99
2018-12-26T09:19:43.096Z,99.99
2018-12-26T09:20:42.957Z,99.99
2018-12-26T09:21:42.968Z,99.99
2018-12-26T09:22:42.991Z,99.99
2018-12-26T09:23:42.990Z,99.99
2018-12-26T09:24:43.119Z,99.99
2018-12-26T09:25:43.152Z,99.99
2018-12-26T09:26:43.040Z,99.99
2018-12-26T09:27:43.061Z,99.99
2018-12-26T09:28:43.938Z,99.99
2018-12-26T09:29:43.247Z,99.99
2018-12-26T09:30:43.152Z,99.99
2018-12-26T09:31:43.114Z,99.99
2018-12-26T09:32:43.123Z,99.99
2018-12-26T09:33:43.270Z,99.99
2018-12-26T09:34:43.215Z,99.99
2018-12-26T09:35:43.185Z,99.99
2018-12-26T09:36:43.201Z,99.99
2018-12-26T09:37:43.333Z,99.99
2018-12-26T09:38:43.216Z,99.99
2018-12-26T09:39:43.512Z,99.99
2018-12-26T09:40:43.263Z,99.99
2018-12-26T09:41:43.261Z,99.99
2018-12-26T09:42:43.313Z,99.99
2018-12-26T09:43:43.423Z,99.99
2018-12-26T09:44:43.370Z,99.99
2018-12-26T09:45:43.455Z,99.99
2018-12-26T09:46:43.345Z,99.99
2018-12-26T09:47:43.477Z,99.99
2018-12-26T09:48:43.386Z,99.99
2018-12-26T09:49:43.401Z,99.99
2018-12-26T09:50:43.452Z,99.99
2018-12-26T09:51:43.482Z,99.99
2018-12-26T09:52:43.611Z,99.99
2018-12-26T09:53:43.493Z,99.99
2018-12-26T09:54:43.482Z,99.99
2018-12-26T09:55:43.617Z,99.99
2018-12-26T09:56:43.631Z,99.99
2018-12-26T09:57:43.668Z,99.99
2018-12-26T09:58:43.535Z,99.99
2018-12-26T09:59:43.565Z,99.99
2018-12-26T10:00:43.580Z,99.99
2018-12-26T10:01:43.586Z,99.99
2018-12-26T10:02:43.717Z,99.99
2018-12-26T10:03:43.631Z,99.99
2018-12-26T10:04:43.655Z,99.99
2018-12-26T10:05:43.733Z,99.99
2018-12-26T10:06:43.808Z,99.99
2018-12-26T10:07:43.711Z,99.99
2018-12-26T10:08:43.779Z,99.99
2018-12-26T10:09:43.730Z,99.99
2018-12-26T10:10:43.877Z,99.99
2018-12-26T10:11:43.781Z,99.99
2018-12-26T10:12:43.803Z,99.99
2018-12-26T10:13:43.878Z,99.99
2018-12-26T10:14:43.833Z,87.13
2018-12-26T10:15:43.844Z,85.44
2018-12-26T10:16:43.892Z,85.93
2018-12-26T10:17:43.897Z,86.02
2018-12-26T10:18:43.967Z,88.99
2018-12-26T10:19:44.047Z,90.44
2018-12-26T10:20:43.932Z,86.86
2018-12-26T10:21:43.960Z,84.82
2018-12-26T10:22:43.985Z,84.97
2018-12-26T10:23:44.044Z,85.75
2018-12-26T10:24:44.020Z,86.13
2018-12-26T10:25:44.040Z,85.07
2018-12-26T10:26:44.046Z,85.41
2018-12-26T10:27:44.113Z,85.80
2018-12-26T10:28:44.203Z,84.99
2018-12-26T10:29:44.112Z,86.92
2018-12-26T10:30:44.140Z,87.99
2018-12-26T10:31:44.166Z,88.04
2018-12-26T10:32:44.198Z,87.85
2018-12-26T10:33:44.277Z,87.36
2018-12-26T10:34:44.219Z,88.33
2018-12-26T10:35:44.225Z,88.23
2018-12-26T10:36:44.347Z,88.57
2018-12-26T10:37:44.258Z,88.39
2018-12-26T10:38:44.282Z,88.57
2018-12-26T10:39:44.292Z,87.99
2018-12-26T10:40:44.311Z,88.87
2018-12-26T10:41:44.428Z,88.67
2018-12-26T10:42:46.004Z,88.77
2018-12-26T10:43:44.376Z,88.33
2018-12-26T10:44:44.376Z,87.55
2018-12-26T10:45:44.402Z,87.36
2018-12-26T10:46:44.517Z,87.07
2018-12-26T10:47:44.427Z,87.17
2018-12-26T10:48:44.464Z,86.69
2018-12-26T10:49:44.476Z,86.20
2018-12-26T10:50:44.524Z,86.34
2018-12-26T10:51:44.615Z,85.82
2018-12-26T10:52:44.541Z,86.10
2018-12-26T10:53:44.554Z,85.96
2018-12-26T10:54:44.575Z,85.22
2018-12-26T10:55:44.580Z,83.56
2018-12-26T10:56:44.875Z,81.01
2018-12-26T10:57:44.613Z,77.91
2018-12-26T10:58:44.631Z,71.27
2018-12-26T10:59:44.657Z,67.35
2018-12-26T11:00:44.682Z,66.34
2018-12-26T11:01:44.862Z,65.10
2018-12-26T11:02:44.834Z,63.73
2018-12-26T11:03:44.739Z,64.26
2018-12-26T11:04:44.768Z,62.66
2018-12-26T11:05:44.781Z,64.09
2018-12-26T11:06:44.860Z,64.94
2018-12-26T11:07:44.935Z,66.24
2018-12-26T11:08:44.847Z,67.57
2018-12-26T11:09:45.030Z,67.73
2018-12-26T11:10:44.861Z,69.87
2018-12-26T11:11:44.889Z,71.33
2018-12-26T11:12:44.905Z,71.68
2018-12-26T11:13:44.944Z,72.33
2018-12-26T11:14:45.001Z,73.10
2018-12-26T11:15:44.969Z,73.30
2018-12-26T11:16:45.013Z,73.68
2018-12-26T11:17:45.023Z,73.58
2018-12-26T11:18:45.024Z,74.23
2018-12-26T11:19:45.214Z,74.62
2018-12-26T11:20:45.085Z,75.01
2018-12-26T11:21:45.212Z,75.40
2018-12-26T11:22:45.110Z,75.10
2018-12-26T11:23:45.134Z,75.20
2018-12-26T11:24:45.263Z,75.49
2018-12-26T11:25:45.291Z,75.30
2018-12-26T11:26:45.206Z,75.43
2018-12-26T11:27:45.202Z,74.65
2018-12-26T11:28:45.284Z,74.95
2018-12-26T11:29:45.297Z,73.20
2018-12-26T11:30:45.277Z,73.00
2018-12-26T11:31:45.284Z,73.24
2018-12-26T11:32:45.293Z,71.23
2018-12-26T11:33:45.329Z,70.06
2018-12-26T11:34:45.563Z,69.94
2018-12-26T11:35:45.483Z,67.08
2018-12-26T11:36:45.483Z,65.11
2018-12-26T11:37:45.396Z,62.34
2018-12-26T11:38:45.422Z,60.74
2018-12-26T11:39:45.612Z,58.94
2018-12-26T11:40:45.475Z,57.04
2018-12-26T11:41:45.489Z,55.31
2018-12-26T11:42:45.553Z,54.91
2018-12-26T11:43:45.526Z,53.57
2018-12-26T11:44:45.713Z,53.38
2018-12-26T11:45:45.555Z,52.42
2018-12-26T11:46:45.586Z,51.96
2018-12-26T11:47:45.601Z,51.20
2018-12-26T11:48:45.618Z,50.54
2018-12-26T11:49:45.702Z,50.46
2018-12-26T11:50:45.667Z,49.13
2018-12-26T11:51:45.701Z,47.69
2018-12-26T11:52:45.735Z,46.92
2018-12-26T11:53:45.747Z,47.02
2018-12-26T11:54:45.811Z,47.19
2018-12-26T11:55:45.787Z,47.36
2018-12-26T11:56:45.829Z,47.66
2018-12-26T11:57:45.831Z,47.15
2018-12-26T11:58:45.855Z,47.64
2018-12-26T11:59:45.984Z,47.56
2018-12-26T12:00:46.030Z,46.58
2018-12-26T12:01:45.927Z,47.27
2018-12-26T12:02:45.951Z,47.64
2018-12-26T12:03:46.001Z,47.81
2018-12-26T12:04:46.174Z,48.18
2018-12-26T12:05:46.035Z,49.31
2018-12-26T12:06:46.050Z,47.22
2018-12-26T12:07:46.084Z,47.61
2018-12-26T12:08:46.102Z,47.74
2018-12-26T12:09:46.224Z,47.36
2018-12-26T12:10:46.150Z,45.23
2018-12-26T12:11:46.289Z,45.27
2018-12-26T12:12:46.225Z,44.48
2018-12-26T12:13:46.207Z,43.24
2018-12-26T12:14:46.333Z,44.35
2018-12-26T12:15:46.271Z,43.43
2018-12-26T12:16:46.305Z,40.50
2018-12-26T12:17:46.321Z,39.20
2018-12-26T12:18:46.347Z,40.15
2018-12-26T12:19:46.504Z,40.70
2018-12-26T12:20:46.405Z,42.54
2018-12-26T12:21:46.411Z,43.30
2018-12-26T12:22:46.442Z,44.17
2018-12-26T12:23:46.455Z,44.64
2018-12-26T12:24:46.604Z,45.23
2018-12-26T12:25:46.639Z,45.20
2018-12-26T12:26:46.668Z,45.23
2018-12-26T12:27:46.577Z,45.03
2018-12-26T12:28:46.595Z,43.36
2018-12-26T12:29:46.776Z,43.43
2018-12-26T12:30:46.636Z,43.14
2018-12-26T12:31:46.667Z,44.71
2018-12-26T12:32:46.692Z,44.32
2018-12-26T12:33:46.719Z,44.22
2018-12-26T12:34:46.944Z,45.03
2018-12-26T12:35:46.767Z,43.57
2018-12-26T12:36:46.777Z,42.76
2018-12-26T12:37:46.817Z,41.83
2018-12-26T12:38:46.961Z,40.19
2018-12-26T12:39:47.008Z,39.22
2018-12-26T12:40:46.919Z,37.58
2018-12-26T12:41:46.914Z,36.49
2018-12-26T12:42:46.965Z,36.98
2018-12-26T12:43:46.966Z,37.38
2018-12-26T12:44:47.265Z,37.00
2018-12-26T12:45:47.142Z,36.13
2018-12-26T12:46:47.048Z,35.25
2018-12-26T12:47:47.086Z,35.77
2018-12-26T12:48:47.241Z,34.23
2018-12-26T12:49:47.227Z,33.12
2018-12-26T12:50:47.143Z,34.01
2018-12-26T12:51:47.198Z,33.94
2018-12-26T12:52:47.253Z,33.64